Time;durP1;ratioP1;P1;durP2;ratioP2;P2;SDS_P1;SDS_P2;PMS_P1;PMS_P2;Temp;Humidity;BMP_temperature;BMP_pressure;BME280_temperature;BME280_humidity;BME280_pressure;Samples;Min_cycle;Max_cycle;Signal;HPM_P1;HPM_P2
2021/12/03 00:00:49;;;;;;;17.75;3.75;;;9.20;99.90;;;;;;4948033;28;113101;-62
2021/12/03 00:03:15;;;;;;;9.68;2.70;;;9.20;99.90;;;;;;4965965;28;112809;-60
2021/12/03 00:05:41;;;;;;;10.73;2.40;;;9.20;99.90;;;;;;4949045;28;112651;-63
2021/12/03 00:08:07;;;;;;;8.00;2.38;;;9.20;99.90;;;;;;4966405;28;112363;-63
2021/12/03 00:10:35;;;;;;;6.72;2.63;;;9.30;99.90;;;;;;4947178;28;113336;-64
2021/12/03 00:13:03;;;;;;;8.50;2.33;;;9.30;99.90;;;;;;4947426;28;114929;-62
2021/12/03 00:15:29;;;;;;;21.00;2.13;;;9.30;99.90;;;;;;4966217;28;112283;-62
2021/12/03 00:17:55;;;;;;;10.30;2.88;;;9.40;99.90;;;;;;4966964;28;112502;-63
2021/12/03 00:20:23;;;;;;;9.25;1.85;;;9.40;99.90;;;;;;4948567;28;113467;-61
2021/12/03 00:22:52;;;;;;;7.95;2.50;;;9.40;99.90;;;;;;4965849;28;113033;-61
2021/12/03 00:25:19;;;;;;;9.10;2.38;;;9.50;99.90;;;;;;4966361;28;112622;-61
2021/12/03 00:27:45;;;;;;;8.38;2.40;;;9.50;99.90;;;;;;4966658;28;112452;-62
2021/12/03 00:30:13;;;;;;;10.45;3.03;;;9.50;99.90;;;;;;4965934;28;113372;-61
2021/12/03 00:32:40;;;;;;;9.15;2.65;;;9.50;99.90;;;;;;4947801;28;115315;-62
2021/12/03 00:35:06;;;;;;;8.33;3.10;;;9.60;99.90;;;;;;5016048;22;112577;-69
2021/12/03 00:37:37;;;;;;;6.35;2.05;;;9.60;99.90;;;;;;4944067;28;115194;-68
2021/12/03 00:40:05;;;;;;;14.10;2.53;;;9.60;99.90;;;;;;4946172;28;114513;-69
2021/12/03 00:42:31;;;;;;;6.13;2.22;;;9.60;99.90;;;;;;4946158;28;113467;-67
2021/12/03 00:44:57;;;;;;;6.63;2.70;;;9.70;99.90;;;;;;4925763;28;113115;-67
2021/12/03 00:47:25;;;;;;;5.30;2.28;;;9.70;99.90;;;;;;4946620;28;112419;-67
2021/12/03 00:49:51;;;;;;;8.18;2.33;;;9.60;99.90;;;;;;4945636;28;113439;-66
2021/12/03 00:52:18;;;;;;;16.02;2.85;;;9.60;99.90;;;;;;4946112;28;112386;-67
2021/12/03 00:54:44;;;;;;;6.68;2.28;;;9.60;99.90;;;;;;4946827;28;112567;-67
2021/12/03 00:57:09;;;;;;;9.23;2.03;;;9.60;99.90;;;;;;4946475;28;112558;-67
2021/12/03 00:59:35;;;;;;;8.10;2.78;;;9.50;99.90;;;;;;4945969;28;112875;-67
2021/12/03 01:02:01;;;;;;;5.13;2.35;;;9.50;99.90;;;;;;4944678;28;113986;-67
2021/12/03 01:04:27;;;;;;;9.10;2.50;;;9.50;99.90;;;;;;4945898;28;112912;-67
2021/12/03 01:06:53;;;;;;;9.15;2.58;;;9.40;99.90;;;;;;4945963;28;112894;-67
2021/12/03 01:09:21;;;;;;;7.03;2.60;;;9.40;99.90;;;;;;4945386;28;113009;-67
2021/12/03 01:11:47;;;;;;;17.13;4.28;;;9.40;99.90;;;;;;4945694;28;113283;-67
2021/12/03 01:14:13;;;;;;;12.73;4.30;;;9.40;99.90;;;;;;4946435;28;112569;-66
2021/12/03 01:16:39;;;;;;;25.02;11.93;;;9.40;99.90;;;;;;4946435;28;112288;-65
2021/12/03 01:19:05;;;;;;;8.55;3.67;;;9.40;99.90;;;;;;4944227;28;113089;-67
2021/12/03 01:21:30;;;;;;;14.27;4.68;;;9.30;99.90;;;;;;4945332;28;112652;-67
2021/12/03 01:23:57;;;;;;;10.75;5.72;;;9.30;99.90;;;;;;4946255;28;112241;-67
2021/12/03 01:26:23;;;;;;;30.83;7.70;;;9.20;99.90;;;;;;4946070;28;112454;-67
2021/12/03 01:28:50;;;;;;;20.33;7.22;;;9.30;99.90;;;;;;4944769;28;115133;-67
2021/12/03 01:31:17;;;;;;;35.92;15.23;;;9.20;99.90;;;;;;4945446;28;112376;-66
2021/12/03 01:33:45;;;;;;;32.45;11.63;;;9.20;99.90;;;;;;4945236;28;112474;-67
2021/12/03 01:36:12;;;;;;;28.17;8.70;;;9.20;99.90;;;;;;4924605;28;112423;-68
2021/12/03 01:38:38;;;;;;;15.95;6.65;;;9.20;99.90;;;;;;4925809;28;113332;-67
2021/12/03 01:41:04;;;;;;;41.45;17.42;;;9.20;99.90;;;;;;4925740;28;114385;-67
2021/12/03 01:43:30;;;;;;;29.58;11.55;;;9.20;99.90;;;;;;4926192;28;112608;-66
2021/12/03 01:46:05;;;;;;;21.17;8.00;;;9.20;99.90;;;;;;4925483;28;112643;-69
2021/12/03 01:48:31;;;;;;;23.52;9.20;;;9.30;99.90;;;;;;4925182;28;114368;-67
2021/12/03 01:50:58;;;;;;;25.67;8.73;;;9.30;99.90;;;;;;4924566;28;112537;-67
2021/12/03 01:53:26;;;;;;;13.63;4.22;;;9.30;99.90;;;;;;4924838;28;113103;-67
2021/12/03 01:55:55;;;;;;;11.30;4.95;;;9.30;99.90;;;;;;4926052;28;112477;-69
2021/12/03 01:58:21;;;;;;;12.40;3.80;;;9.30;99.90;;;;;;4925440;28;113298;-66
2021/12/03 02:01:01;;;;;;;8.20;2.63;;;9.30;99.90;;;;;;4925634;28;112920;-67
2021/12/03 02:03:32;;;;;;;13.57;2.33;;;9.30;99.90;;;;;;4926482;28;112410;-66
2021/12/03 02:05:58;;;;;;;15.32;3.97;;;9.30;99.90;;;;;;4926386;28;112828;-68
2021/12/03 02:08:24;;;;;;;15.27;4.25;;;9.40;99.90;;;;;;4888575;28;113746;-67
2021/12/03 02:10:51;;;;;;;12.40;4.45;;;9.40;99.90;;;;;;4920715;28;114870;-67
2021/12/03 02:13:16;;;;;;;18.58;5.15;;;9.40;99.90;;;;;;4925332;28;112692;-69
2021/12/03 02:15:44;;;;;;;10.52;2.55;;;9.50;99.90;;;;;;4918390;28;112983;-67
2021/12/03 02:18:11;;;;;;;14.73;5.20;;;9.50;99.90;;;;;;4923626;28;113683;-66
2021/12/03 02:20:51;;;;;;;11.52;3.78;;;9.50;99.90;;;;;;4916449;28;115227;-66
2021/12/03 02:23:18;;;;;;;15.38;5.15;;;9.50;99.90;;;;;;4925626;28;112707;-69
2021/12/03 02:25:46;;;;;;;11.18;3.58;;;9.60;99.90;;;;;;4925885;28;112338;-68
2021/12/03 02:28:14;;;;;;;13.82;4.95;;;9.60;99.90;;;;;;4943313;22;114043;-62
2021/12/03 02:30:40;;;;;;;10.57;4.03;;;9.60;99.90;;;;;;4963905;28;113531;-64
2021/12/03 02:33:06;;;;;;;14.15;5.40;;;9.60;99.90;;;;;;4964203;28;112485;-59
2021/12/03 02:35:34;;;;;;;16.08;4.95;;;9.60;99.90;;;;;;4963602;28;112530;-59
2021/12/03 02:38:00;;;;;;;19.58;6.60;;;9.60;99.90;;;;;;4963729;28;113663;-61
2021/12/03 02:40:26;;;;;;;20.45;5.30;;;9.60;99.90;;;;;;4963355;28;113580;-64
2021/12/03 02:42:53;;;;;;;10.65;2.70;;;9.60;99.90;;;;;;4964336;28;112476;-63
2021/12/03 02:45:20;;;;;;;10.95;3.15;;;9.60;99.90;;;;;;4929956;28;112703;-62
2021/12/03 02:47:46;;;;;;;10.30;3.47;;;9.60;99.90;;;;;;4945376;28;115882;-61
2021/12/03 02:50:14;;;;;;;5.82;2.85;;;9.60;99.90;;;;;;4963545;28;112894;-61
2021/12/03 02:52:42;;;;;;;8.13;3.53;;;9.60;99.90;;;;;;4964290;28;112346;-61
2021/12/03 02:55:09;;;;;;;8.38;3.35;;;9.70;99.90;;;;;;4964540;28;112481;-62
2021/12/03 02:57:34;;;;;;;10.43;4.53;;;9.60;99.90;;;;;;4963717;28;113879;-61
2021/12/03 03:00:01;;;;;;;8.65;3.70;;;9.70;99.90;;;;;;4945846;28;112674;-61
2021/12/03 03:02:26;;;;;;;11.70;3.60;;;9.70;99.90;;;;;;4946518;28;112443;-61
2021/12/03 03:04:53;;;;;;;9.57;3.58;;;9.70;99.90;;;;;;4946119;28;112436;-61
2021/12/03 03:07:19;;;;;;;6.90;2.92;;;9.80;99.90;;;;;;4945979;28;114368;-62
2021/12/03 03:09:46;;;;;;;12.77;3.17;;;9.80;99.90;;;;;;4962937;28;113157;-60
2021/12/03 03:12:13;;;;;;;5.50;2.97;;;9.80;99.90;;;;;;4963509;28;112735;-60
2021/12/03 03:15:06;;;;;;;8.48;3.70;;;9.80;99.90;;;;;;4963781;28;112328;-59
2021/12/03 03:17:32;;;;;;;12.40;3.00;;;9.80;99.90;;;;;;4939530;28;117409;-62
2021/12/03 03:19:59;;;;;;;11.57;4.60;;;9.80;99.90;;;;;;4959835;28;113978;-62
2021/12/03 03:22:26;;;;;;;6.70;2.30;;;9.80;99.90;;;;;;4964000;28;112740;-63
2021/12/03 03:24:53;;;;;;;4.13;2.15;;;9.80;99.90;;;;;;4964288;28;112330;-62
2021/12/03 03:27:21;;;;;;;9.18;2.08;;;9.80;99.90;;;;;;4963036;28;113476;-62
2021/12/03 03:29:48;;;;;;;5.53;2.10;;;9.80;99.90;;;;;;4962567;28;113019;-62
2021/12/03 03:32:15;;;;;;;14.07;3.40;;;9.90;99.90;;;;;;4964623;28;112254;-62
2021/12/03 03:34:41;;;;;;;9.25;2.80;;;9.90;99.90;;;;;;4967397;28;112969;-61
2021/12/03 03:37:07;;;;;;;7.72;2.78;;;9.90;99.90;;;;;;4966945;28;113729;-61
2021/12/03 03:39:33;;;;;;;8.98;2.20;;;9.90;99.90;;;;;;4965721;28;113000;-61
2021/12/03 03:41:59;;;;;;;9.00;2.50;;;10.00;99.90;;;;;;4966582;28;112918;-62
2021/12/03 03:44:26;;;;;;;5.65;2.10;;;10.00;99.90;;;;;;4967348;28;112363;-61
2021/12/03 03:46:53;;;;;;;5.07;1.70;;;10.00;99.90;;;;;;4948965;28;113338;-61
2021/12/03 03:49:23;;;;;;;13.25;2.88;;;10.00;99.90;;;;;;4948569;28;112656;-62
2021/12/03 03:51:50;;;;;;;;;;;10.10;99.90;;;;;;4967464;28;112716;-62
2021/12/03 03:54:15;;;;;;;11.50;2.15;;;10.10;99.90;;;;;;4967456;28;112485;-62
2021/12/03 03:56:42;;;;;;;9.40;2.20;;;10.10;99.90;;;;;;4965915;28;113788;-62
2021/12/03 03:59:08;;;;;;;7.82;2.83;;;10.10;99.90;;;;;;4966422;28;112507;-62
2021/12/03 04:01:33;;;;;;;5.90;2.10;;;10.10;99.90;;;;;;4967049;28;112691;-61
2021/12/03 04:03:59;;;;;;;5.90;1.85;;;10.10;99.90;;;;;;4966885;28;112663;-62
2021/12/03 04:06:25;;;;;;;11.70;2.55;;;10.10;99.90;;;;;;4966532;28;113543;-63
2021/12/03 04:08:51;;;;;;;8.15;2.03;;;10.10;99.90;;;;;;4947182;28;114667;-63
2021/12/03 04:11:22;;;;;;;11.02;2.65;;;10.10;99.90;;;;;;4966863;28;112486;-62
2021/12/03 04:13:49;;;;;;;9.18;2.53;;;10.10;99.90;;;;;;4932587;28;112526;-62
2021/12/03 04:16:16;;;;;;;13.15;2.42;;;10.20;99.90;;;;;;4965576;28;114704;-62
2021/12/03 04:18:42;;;;;;;10.38;2.20;;;10.20;99.90;;;;;;4964811;28;112690;-61
2021/12/03 04:21:08;;;;;;;7.30;2.00;;;10.20;99.90;;;;;;4967207;28;112302;-61
2021/12/03 04:23:35;;;;;;;10.05;2.05;;;10.20;99.90;;;;;;4966746;28;112477;-62
2021/12/03 04:26:01;;;;;;;16.13;2.60;;;10.20;99.90;;;;;;4931468;28;115400;-60
2021/12/03 04:28:27;;;;;;;11.73;2.67;;;10.20;99.90;;;;;;4964361;28;113528;-62
2021/12/03 04:30:53;;;;;;;6.80;2.22;;;10.20;99.90;;;;;;4966990;28;112267;-63
2021/12/03 04:33:20;;;;;;;7.97;2.10;;;10.20;99.90;;;;;;4966650;28;112964;-62
2021/12/03 04:35:46;;;;;;;11.25;2.83;;;10.20;99.90;;;;;;4947836;28;113122;-61
2021/12/03 04:38:12;;;;;;;10.50;1.85;;;10.20;99.90;;;;;;4948174;28;112863;-60
2021/12/03 04:40:40;;;;;;;7.40;1.95;;;10.20;99.90;;;;;;4966156;28;112377;-62
2021/12/03 04:43:06;;;;;;;8.55;1.77;;;10.30;99.90;;;;;;4965878;28;112576;-63
2021/12/03 04:45:32;;;;;;;12.57;1.83;;;10.30;99.90;;;;;;4947037;28;116525;-61
2021/12/03 04:48:00;;;;;;;10.20;2.53;;;10.30;99.90;;;;;;4965726;28;112410;-62
2021/12/03 04:50:30;;;;;;;13.73;2.08;;;10.20;99.90;;;;;;4966466;28;112482;-61
2021/12/03 04:52:56;;;;;;;8.07;1.58;;;10.20;99.90;;;;;;4966630;28;112783;-62
2021/12/03 04:55:23;;;;;;;4.40;1.60;;;10.30;99.90;;;;;;4965427;28;113100;-62
2021/12/03 04:57:50;;;;;;;7.07;2.38;;;10.30;99.90;;;;;;4965048;28;114073;-63
2021/12/03 05:00:25;;;;;;;8.73;2.40;;;10.20;99.90;;;;;;4947824;28;112485;-63
2021/12/03 05:02:53;;;;;;;5.38;1.77;;;10.30;99.90;;;;;;4948275;28;112524;-63
2021/12/03 05:05:19;;;;;;;9.80;2.50;;;10.30;99.90;;;;;;4965002;28;115201;-63
2021/12/03 05:07:57;;;;;;;9.50;2.47;;;10.30;99.90;;;;;;4964341;28;113406;-64
2021/12/03 05:10:34;;;;;;;11.23;2.28;;;10.30;99.90;;;;;;4949907;28;112818;-63
2021/12/03 05:13:04;;;;;;;5.03;1.30;;;10.30;99.90;;;;;;4965666;28;113061;-61
2021/12/03 05:15:30;;;;;;;9.30;2.92;;;10.30;99.90;;;;;;4964389;28;114581;-60
2021/12/03 05:17:56;;;;;;;11.05;2.42;;;10.30;99.90;;;;;;4963414;28;112723;-63
2021/12/03 05:20:22;;;;;;;8.10;4.03;;;10.40;99.90;;;;;;4931994;28;112619;-61
2021/12/03 05:22:48;;;;;;;9.93;1.92;;;10.40;99.90;;;;;;4947941;28;112709;-62
2021/12/03 05:25:14;;;;;;;10.13;1.50;;;10.40;99.90;;;;;;4964504;28;113527;-61
2021/12/03 05:27:40;;;;;;;17.17;2.28;;;10.40;99.90;;;;;;4964339;28;113729;-60
2021/12/03 05:30:08;;;;;;;10.02;1.80;;;10.40;99.90;;;;;;4964852;28;112319;-63
2021/12/03 05:32:34;;;;;;;3.03;1.60;;;10.40;99.90;;;;;;4963779;28;112542;-61
2021/12/03 05:35:00;;;;;;;6.10;1.77;;;10.30;99.90;;;;;;4964407;28;114641;-60
2021/12/03 05:37:26;;;;;;;12.82;1.58;;;10.30;99.90;;;;;;4965277;28;112418;-62
2021/12/03 05:39:51;;;;;;;4.05;1.70;;;10.30;99.90;;;;;;4965354;28;113028;-62
2021/12/03 05:42:17;;;;;;;6.32;1.40;;;10.30;99.90;;;;;;4965958;28;112399;-62
2021/12/03 05:44:43;;;;;;;3.75;1.58;;;10.30;99.90;;;;;;4964762;28;113487;-62
2021/12/03 05:47:09;;;;;;;8.68;2.78;;;10.30;99.90;;;;;;4947528;28;112847;-61
2021/12/03 05:49:34;;;;;;;5.18;1.42;;;10.30;99.90;;;;;;4947212;28;112989;-62
2021/12/03 05:52:00;;;;;;;7.88;1.92;;;10.30;99.90;;;;;;4965197;28;112516;-62
2021/12/03 05:54:27;;;;;;;8.13;1.67;;;10.30;99.90;;;;;;4963154;28;113341;-63
2021/12/03 05:56:53;;;;;;;10.48;2.55;;;10.40;99.90;;;;;;4963388;28;112640;-63
2021/12/03 05:59:19;;;;;;;8.52;1.92;;;10.40;99.90;;;;;;4964908;28;112393;-62
2021/12/03 06:01:45;;;;;;;4.43;2.13;;;10.40;99.90;;;;;;4947471;28;112668;-62
2021/12/03 06:04:11;;;;;;;13.20;2.08;;;10.40;99.90;;;;;;4963948;28;114543;-63
2021/12/03 06:06:37;;;;;;;5.05;2.25;;;10.40;99.90;;;;;;4963934;28;114087;-62
2021/12/03 06:09:04;;;;;;;7.38;1.85;;;10.40;99.90;;;;;;4947369;28;112409;-64
2021/12/03 06:11:30;;;;;;;9.98;1.90;;;10.40;99.90;;;;;;4947202;28;112508;-62
2021/12/03 06:13:56;;;;;;;11.38;2.60;;;10.50;99.90;;;;;;4964256;28;113814;-62
2021/12/03 06:16:23;;;;;;;5.10;2.33;;;10.50;99.90;;;;;;4946372;28;115462;-62
2021/12/03 06:18:49;;;;;;;10.20;2.10;;;10.50;99.90;;;;;;4946614;28;112684;-63
2021/12/03 06:21:15;;;;;;;8.85;2.38;;;10.50;99.90;;;;;;4964815;28;112690;-62
2021/12/03 06:23:42;;;;;;;9.63;3.15;;;10.50;99.90;;;;;;4962801;28;113091;-60
2021/12/03 06:26:09;;;;;;;8.07;2.17;;;10.50;99.90;;;;;;4964038;28;112662;-61
2021/12/03 06:28:36;;;;;;;6.72;1.85;;;10.50;99.90;;;;;;4964171;28;112477;-62
2021/12/03 06:31:03;;;;;;;9.98;2.08;;;10.50;99.90;;;;;;4965263;28;112974;-62
2021/12/03 06:33:29;;;;;;;12.73;2.40;;;10.50;99.90;;;;;;4959813;22;114059;-58
2021/12/03 06:35:54;;;;;;;8.10;2.40;;;10.50;99.90;;;;;;4926305;28;114343;-59
2021/12/03 06:38:21;;;;;;;11.27;2.83;;;10.50;99.90;;;;;;4945739;28;112654;-59
2021/12/03 06:40:48;;;;;;;6.93;2.13;;;10.50;99.90;;;;;;4944393;28;113046;-63
2021/12/03 06:43:14;;;;;;;6.97;2.42;;;10.60;99.90;;;;;;4944120;28;113486;-59
2021/12/03 06:45:40;;;;;;;9.15;2.40;;;10.60;99.90;;;;;;4943044;28;112653;-59
2021/12/03 06:48:06;;;;;;;8.63;2.35;;;10.60;99.90;;;;;;4945293;28;112483;-59
2021/12/03 06:50:32;;;;;;;5.57;1.83;;;10.60;99.90;;;;;;4944417;28;112360;-59
2021/12/03 06:53:02;;;;;;;9.23;2.50;;;10.60;99.90;;;;;;4943606;28;114416;-59
2021/12/03 06:55:28;;;;;;;;;;;10.60;99.90;;;;;;4943941;28;113589;-56
2021/12/03 06:57:54;;;;;;;9.15;2.10;;;10.60;99.90;;;;;;4927604;28;112828;-57
2021/12/03 07:00:22;;;;;;;6.20;2.17;;;10.60;99.90;;;;;;4943874;28;112621;-59
2021/12/03 07:02:48;;;;;;;10.13;2.50;;;10.60;99.90;;;;;;4943360;28;114902;-58
2021/12/03 07:05:14;;;;;;;10.20;1.85;;;10.60;99.90;;;;;;4942910;28;112926;-59
2021/12/03 07:07:41;;;;;;;12.63;2.00;;;10.60;99.90;;;;;;4943181;28;112651;-60
2021/12/03 07:10:08;;;;;;;6.65;1.73;;;10.70;99.90;;;;;;4944266;28;112496;-58
2021/12/03 07:12:34;;;;;;;6.25;2.20;;;10.70;99.90;;;;;;4943064;28;115536;-57
2021/12/03 07:15:00;;;;;;;5.75;1.83;;;10.70;99.90;;;;;;4942674;28;113713;-57
2021/12/03 07:17:30;;;;;;;10.90;2.40;;;10.70;99.90;;;;;;4926687;28;112589;-59
2021/12/03 07:19:57;;;;;;;;;;;10.80;99.90;;;;;;4927561;28;112592;-59
2021/12/03 07:22:24;;;;;;;13.52;2.03;;;10.80;99.90;;;;;;4944138;28;114196;-59
2021/12/03 07:24:50;;;;;;;14.90;3.92;;;10.80;99.90;;;;;;4943579;28;112614;-67
2021/12/03 07:27:16;;;;;;;13.68;2.50;;;10.80;99.90;;;;;;4943733;28;114039;-66
2021/12/03 07:29:47;;;;;;;4.57;2.00;;;10.80;99.90;;;;;;4944250;28;112334;-66
2021/12/03 07:32:16;;;;;;;16.00;8.55;;;10.80;99.90;;;;;;4943245;28;113727;-68
2021/12/03 07:34:42;;;;;;;;;;;10.90;99.90;;;;;;4943400;28;112705;-67
2021/12/03 07:37:09;;;;;;;9.77;3.38;;;10.90;99.90;;;;;;4926738;28;112842;-65
2021/12/03 07:39:35;;;;;;;19.65;5.75;;;10.90;99.90;;;;;;4926547;28;112649;-68
2021/12/03 07:42:01;;;;;;;11.23;5.65;;;10.90;99.90;;;;;;4942199;28;113258;-66
2021/12/03 07:44:27;;;;;;;10.10;4.60;;;10.90;99.90;;;;;;4943475;28;113492;-60
2021/12/03 07:46:52;;;;;;;13.02;4.07;;;10.90;99.90;;;;;;4960169;28;112670;-70
2021/12/03 07:49:20;;;;;;;15.32;4.72;;;10.90;99.90;;;;;;4962994;28;112544;-68
2021/12/03 07:51:45;;;;;;;105.28;44.40;;;10.90;99.90;;;;;;4962574;28;113672;-67
2021/12/03 07:54:11;;;;;;;76.22;34.17;;;10.90;99.90;;;;;;4943324;28;114322;-66
2021/12/03 07:56:37;;;;;;;15.23;8.27;;;11.00;99.90;;;;;;4962839;28;112491;-67
2021/12/03 07:59:05;;;;;;;8.82;3.78;;;11.00;99.90;;;;;;4945171;28;112455;-64
2021/12/03 08:01:31;;;;;;;7.70;3.17;;;11.00;99.90;;;;;;4945175;28;115123;-67
2021/12/03 08:03:56;;;;;;;15.77;5.13;;;11.00;99.90;;;;;;4962830;28;114467;-63
2021/12/03 08:06:22;;;;;;;12.95;4.68;;;11.00;99.90;;;;;;4963348;28;112669;-66
2021/12/03 08:08:48;;;;;;;5.53;3.03;;;11.00;99.90;;;;;;4945198;28;112659;-65
2021/12/03 08:11:14;;;;;;;10.77;3.00;;;11.10;99.90;;;;;;4944651;28;114100;-66
2021/12/03 08:13:40;;;;;;;6.60;2.75;;;11.10;99.90;;;;;;4944782;28;114946;-66
2021/12/03 08:16:06;;;;;;;9.38;2.53;;;11.10;99.90;;;;;;4962185;28;112307;-65
2021/12/03 08:18:32;;;;;;;9.70;2.65;;;11.10;99.90;;;;;;4962812;28;112952;-68
2021/12/03 08:20:58;;;;;;;7.05;2.55;;;11.10;99.90;;;;;;4964543;28;115470;-67
2021/12/03 08:23:24;;;;;;;11.90;2.53;;;11.10;99.90;;;;;;4965016;28;113251;-67
2021/12/03 08:25:50;;;;;;;7.22;2.20;;;11.20;99.90;;;;;;4966437;28;112791;-66
2021/12/03 08:28:16;;;;;;;8.02;2.13;;;11.20;99.90;;;;;;4966552;28;112651;-67
2021/12/03 08:30:42;;;;;;;13.18;3.58;;;11.30;99.90;;;;;;4946324;28;113168;-65
2021/12/03 08:33:08;;;;;;;12.73;4.97;;;11.30;99.90;;;;;;4927802;28;113551;-67
2021/12/03 08:35:34;;;;;;;3.33;1.90;;;11.30;99.90;;;;;;4929065;28;112707;-66
2021/12/03 08:38:00;;;;;;;11.43;3.72;;;11.40;99.90;;;;;;4945233;28;112564;-63
2021/12/03 08:40:26;;;;;;;14.27;5.93;;;11.40;99.90;;;;;;4946156;28;113181;-66
2021/12/03 08:42:52;;;;;;;12.75;4.18;;;11.50;99.90;;;;;;4945612;28;113717;-67
2021/12/03 08:45:20;;;;;;;7.78;3.83;;;11.50;99.90;;;;;;4946425;28;112382;-67
2021/12/03 08:47:50;;;;;;;11.05;3.08;;;11.50;99.90;;;;;;4945463;28;112585;-65
2021/12/03 08:50:26;;;;;;;4.70;1.67;;;11.60;99.90;;;;;;4945504;28;115604;-65
2021/12/03 08:55:39;;;;;;;7.97;1.90;;;11.70;99.90;;;;;;4946713;28;112732;-67
2021/12/03 08:58:05;;;;;;;5.20;2.00;;;11.80;99.90;;;;;;4946040;28;112662;-67
2021/12/03 09:00:33;;;;;;;5.50;2.10;;;11.80;99.90;;;;;;4927843;28;114278;-67
2021/12/03 09:03:00;;;;;;;4.03;1.50;;;11.80;99.90;;;;;;4945505;28;113945;-67
2021/12/03 09:05:31;;;;;;;8.98;2.15;;;11.90;99.90;;;;;;4946439;28;112643;-68
2021/12/03 09:07:57;;;;;;;2.83;1.50;;;11.90;99.90;;;;;;4946346;28;112646;-66
2021/12/03 09:10:24;;;;;;;7.47;2.70;;;12.00;99.90;;;;;;4945252;28;114368;-67
2021/12/03 09:12:50;;;;;;;7.13;2.15;;;12.00;99.90;;;;;;4926930;28;115675;-67
2021/12/03 09:15:21;;;;;;;4.95;2.22;;;12.00;99.90;;;;;;4945564;28;113675;-66
2021/12/03 09:18:00;;;;;;;7.20;2.33;;;12.10;99.90;;;;;;4946642;28;112332;-67
2021/12/03 09:20:37;;;;;;;8.57;2.70;;;12.20;99.90;;;;;;4944857;28;114803;-67
2021/12/03 09:23:08;;;;;;;8.32;2.75;;;12.20;99.90;;;;;;4945212;28;113018;-67
2021/12/03 09:25:35;;;;;;;5.10;2.08;;;12.20;99.90;;;;;;4927833;28;112596;-66
2021/12/03 09:28:04;;;;;;;7.78;2.00;;;12.30;99.90;;;;;;4945675;28;112773;-68
2021/12/03 09:30:40;;;;;;;9.27;1.83;;;12.40;99.90;;;;;;4944569;28;114284;-65
2021/12/03 09:33:08;;;;;;;6.28;2.45;;;12.40;99.90;;;;;;4944272;28;114152;-60
2021/12/03 09:35:38;;;;;;;9.50;2.60;;;12.40;99.90;;;;;;4945405;28;112548;-65
2021/12/03 09:38:04;;;;;;;4.57;1.90;;;12.50;99.90;;;;;;4944885;28;112625;-66
2021/12/03 09:40:31;;;;;;;6.00;2.53;;;12.50;99.90;;;;;;4944908;28;112872;-65
2021/12/03 09:42:57;;;;;;;3.70;2.22;;;12.60;99.90;;;;;;4944939;28;114442;-66
2021/12/03 09:45:23;;;;;;;11.18;2.40;;;12.60;99.90;;;;;;4959199;23;113846;-62
2021/12/03 09:47:51;;;;;;;4.53;2.35;;;12.60;99.90;;;;;;4964617;28;112515;-62
2021/12/03 09:50:17;;;;;;;9.60;3.00;;;12.70;99.90;;;;;;4964011;28;113905;-61
2021/12/03 09:53:04;;;;;;;5.63;1.98;;;12.70;99.90;;;;;;4962545;28;112690;-60
2021/12/03 09:55:30;;;;;;;11.55;2.40;;;12.70;99.90;;;;;;4964315;28;112520;-61
2021/12/03 09:58:34;;;;;;;2.38;1.70;;;12.80;99.90;;;;;;4964373;28;112840;-60
2021/12/03 10:00:56;;;;;;;5.20;1.83;;;12.90;99.90;;;;;;4983073;22;115022;-68
2021/12/03 10:07:58;;;;;;;5.97;1.77;;;12.90;99.90;;;;;;4964613;28;112917;-68
2021/12/03 10:10:40;;;;;;;7.18;1.48;;;12.90;99.90;;;;;;4963667;28;112719;-69
2021/12/03 10:36:33;;;;;;;19.45;7.95;;;13.70;99.90;;;;;;4963129;28;112374;-62
2021/12/03 10:44:45;;;;;;;10.48;4.60;;;13.90;99.90;;;;;;4922852;28;112758;-68
2021/12/03 10:47:35;;;;;;;8.98;3.30;;;13.90;99.90;;;;;;4888782;28;112694;-67
2021/12/03 10:56:17;;;;;;;72.05;23.02;;;14.20;99.90;;;;;;4888055;28;112912;-68
2021/12/03 11:45:18;;;;;;;;;;;15.20;99.90;;;;;;4910329;28;112695;-63
2021/12/03 11:56:48;;;;;;;5.15;1.85;;;14.90;99.90;;;;;;4947192;28;112423;-64
2021/12/03 13:12:07;;;;;;;;;;;16.00;99.90;;;;;;4910356;28;112575;-63
2021/12/03 13:28:51;;;;;;;6.15;2.63;;;16.50;99.90;;;;;;4945832;28;113797;-64
2021/12/03 13:40:07;;;;;;;7.20;3.40;;;16.10;99.90;;;;;;4944253;28;112744;-65
2021/12/03 14:01:55;;;;;;;5.10;2.28;;;16.20;99.90;;;;;;4965284;28;112957;-64
2021/12/03 14:30:38;;;;;;;2.60;1.75;;;16.00;99.90;;;;;;4948532;28;112646;-62
2021/12/03 14:37:39;;;;;;;5.15;2.45;;;16.00;99.90;;;;;;4963963;28;112686;-61
2021/12/03 14:50:50;;;;;;;2.88;1.25;;;16.50;99.90;;;;;;4945276;28;112429;-62
2021/12/03 14:55:56;;;;;;;2.25;1.08;;;16.70;99.90;;;;;;4964098;28;113582;-63
2021/12/03 14:58:30;;;;;;;3.65;1.45;;;16.70;99.90;;;;;;4963897;28;113804;-63
2021/12/03 15:01:02;;;;;;;2.72;1.60;;;16.80;99.90;;;;;;4944667;28;115475;-61
2021/12/03 15:09:08;;;;;;;2.80;1.92;;;16.60;99.90;;;;;;4962623;28;112739;-63
2021/12/03 15:15:09;;;;;;;7.88;3.97;;;16.60;99.90;;;;;;4946411;28;113390;-63
2021/12/03 15:24:52;;;;;;;30.13;10.73;;;16.40;99.90;;;;;;4971382;22;114413;-69
2021/12/03 15:33:06;;;;;;;3.97;2.85;;;16.20;99.90;;;;;;4951336;28;112518;-69
2021/12/03 15:38:39;;;;;;;1.80;1.65;;;16.20;99.90;;;;;;4967520;28;112501;-69
2021/12/03 16:08:24;;;;;;;6.07;1.60;;;15.80;99.90;;;;;;4960978;28;112670;-67
2021/12/03 16:16:38;;;;;;;3.42;1.55;;;15.70;99.90;;;;;;4965899;28;112593;-68
2021/12/03 16:46:28;;;;;;;6.28;2.15;;;15.50;99.90;;;;;;4920538;28;113083;-63
2021/12/03 16:51:46;;;;;;;9.27;4.72;;;15.40;99.90;;;;;;4964925;28;112658;-62
2021/12/03 16:54:14;;;;;;;10.10;5.32;;;15.30;99.90;;;;;;4964442;28;112493;-62
2021/12/03 16:56:50;;;;;;;8.63;5.00;;;15.20;99.90;;;;;;4964743;28;114946;-62
2021/12/03 16:59:16;;;;;;;7.13;3.58;;;15.20;99.90;;;;;;4949145;28;112560;-61
2021/12/03 17:01:51;;;;;;;6.40;1.73;;;15.20;99.90;;;;;;4965080;28;112605;-64
2021/12/03 17:29:07;;;;;;;9.27;3.05;;;14.90;99.90;;;;;;4963853;28;112716;-62
2021/12/03 17:48:22;;;;;;;8.70;3.20;;;14.80;99.90;;;;;;4919056;28;112596;-62
2021/12/03 17:53:27;;;;;;;13.10;6.60;;;14.70;99.90;;;;;;4962797;28;112544;-60
2021/12/03 17:56:10;;;;;;;;;;;14.70;99.90;;;;;;4965004;28;113594;-64
2021/12/03 17:58:52;;;;;;;16.58;7.65;;;14.70;99.90;;;;;;4965629;28;112411;-66
2021/12/03 18:01:32;;;;;;;10.80;5.15;;;14.70;99.90;;;;;;4962750;22;115373;-58
2021/12/03 18:06:50;;;;;;;13.70;6.65;;;14.70;99.90;;;;;;4944409;28;112567;-57
2021/12/03 18:17:51;;;;;;;4.68;3.15;;;14.70;99.90;;;;;;4944746;28;113467;-59
2021/12/03 18:48:15;;;;;;;7.60;2.45;;;15.00;99.90;;;;;;4898955;28;113129;-67
2021/12/03 18:55:44;;;;;;;4.40;2.00;;;15.10;99.90;;;;;;4943584;28;112894;-66
2021/12/03 18:58:10;;;;;;;3.03;1.45;;;15.20;99.90;;;;;;4942613;28;113022;-66
2021/12/03 19:00:40;;;;;;;3.70;1.45;;;15.20;99.90;;;;;;4944052;28;112986;-66
2021/12/03 19:03:18;;;;;;;5.05;1.85;;;15.30;99.90;;;;;;4943227;28;112957;-66
2021/12/03 19:08:34;;;;;;;4.60;2.15;;;15.40;99.90;;;;;;4942602;28;112356;-68
2021/12/03 19:11:06;;;;;;;5.88;2.40;;;15.40;99.90;;;;;;4944171;28;112667;-67
2021/12/03 19:13:39;;;;;;;5.95;2.75;;;15.40;99.90;;;;;;4923848;28;112681;-66
2021/12/03 19:16:09;;;;;;;3.65;1.83;;;15.40;99.90;;;;;;4940797;28;114257;-66
2021/12/03 19:18:36;;;;;;;2.88;1.98;;;15.30;99.90;;;;;;4943276;28;113863;-67
2021/12/03 19:21:07;;;;;;;5.20;2.00;;;15.30;99.90;;;;;;4943915;28;112374;-67
2021/12/03 19:23:35;;;;;;;2.38;1.60;;;15.30;99.90;;;;;;4942521;28;112607;-63
2021/12/03 19:26:01;;;;;;;3.72;2.58;;;15.20;99.90;;;;;;4922726;28;115436;-67
2021/12/03 19:28:27;;;;;;;11.15;3.35;;;15.20;99.90;;;;;;4943611;28;112602;-67
2021/12/03 19:30:56;;;;;;;6.60;2.55;;;15.20;99.90;;;;;;4944001;28;112572;-66
2021/12/03 19:33:22;;;;;;;6.85;2.50;;;15.20;99.90;;;;;;4943114;28;112764;-65
2021/12/03 19:35:48;;;;;;;8.75;3.45;;;15.10;99.90;;;;;;4942707;28;114616;-66
2021/12/03 19:38:17;;;;;;;5.10;2.30;;;15.10;99.90;;;;;;4940604;28;112817;-68
2021/12/03 19:40:51;;;;;;;4.88;2.85;;;15.10;99.90;;;;;;4943799;28;112442;-66
2021/12/03 19:43:24;;;;;;;6.75;3.10;;;15.10;99.90;;;;;;4943824;28;112453;-67
2021/12/03 19:45:59;;;;;;;4.10;2.25;;;15.10;99.90;;;;;;4941989;28;112990;-68
2021/12/03 19:48:34;;;;;;;4.35;2.20;;;15.10;99.90;;;;;;4941679;28;113118;-67
2021/12/03 19:51:00;;;;;;;11.77;3.92;;;15.00;99.90;;;;;;4943659;28;113687;-65
2021/12/03 19:53:31;;;;;;;12.85;5.00;;;15.00;99.90;;;;;;4943880;28;112416;-66
2021/12/03 19:55:57;;;;;;;23.05;7.05;;;15.00;99.90;;;;;;4942692;28;114442;-64
2021/12/03 19:58:24;;;;;;;6.00;3.15;;;15.00;99.90;;;;;;4940846;28;112525;-68